RYS665 EPKT-LCPH
Flight info
| Callsign | RYS665 |
|---|---|
| Flight time | N/A |
| Altitude | 37000 |
| Route | REGTO DCT RAZEC DCT KEKED DCT VERIG DCT LOMOS DCT PIDOR DCT NIKTI DCT LMO DCT RIKSO UN127 IMR UG80 BANRO DCT RDS UM601 EVENO DCT DASNI DCT TOBAL |
| Aircraft | B738/M-SDFGIJ1LRWY/SB1 |
Departure
| Time | 2026-05-06 23:59 |
|---|---|
| Airport | Katowice Wojciech Korfanty International Airport (EPKT) |
Arrival
| Time | N/A |
|---|---|
| Airport | Paphos International Airport (LCPH) |
| Time | Latitude | Longitude | Altitude | Speed | Heading |
|---|---|---|---|---|---|
| 2026-05-06 23:19 | 50.47175 | 19.07342 | 984 ft | 0 kts | 180° |
| 2026-05-06 23:49 | 50.47179 | 19.07342 | 983 ft | 2 kts | 180° |
| 2026-05-06 23:49 | 50.47194 | 19.07342 | 983 ft | 2 kts | 180° |
| 2026-05-06 23:49 | 50.47205 | 19.07342 | 983 ft | 0 kts | 180° |
| 2026-05-06 23:49 | 50.47219 | 19.07338 | 983 ft | 2 kts | 146° |
| 2026-05-06 23:50 | 50.47229 | 19.07321 | 983 ft | 2 kts | 114° |
| 2026-05-06 23:50 | 50.47232 | 19.07294 | 983 ft | 0 kts | 89° |
| 2026-05-06 23:54 | 50.47232 | 19.07331 | 983 ft | 6 kts | 89° |
| 2026-05-06 23:54 | 50.47232 | 19.07439 | 983 ft | 12 kts | 90° |
| 2026-05-06 23:54 | 50.47231 | 19.07602 | 984 ft | 16 kts | 90° |
| 2026-05-06 23:54 | 50.47230 | 19.07809 | 984 ft | 21 kts | 90° |
| 2026-05-06 23:55 | 50.47230 | 19.08075 | 983 ft | 27 kts | 90° |
| 2026-05-06 23:55 | 50.47229 | 19.08371 | 985 ft | 26 kts | 88° |
| 2026-05-06 23:55 | 50.47233 | 19.08643 | 987 ft | 23 kts | 89° |
| 2026-05-06 23:55 | 50.47233 | 19.08891 | 989 ft | 22 kts | 90° |
| 2026-05-06 23:56 | 50.47231 | 19.09140 | 993 ft | 21 kts | 90° |
| 2026-05-06 23:56 | 50.47230 | 19.09363 | 995 ft | 19 kts | 89° |
| 2026-05-06 23:56 | 50.47232 | 19.09575 | 1000 ft | 19 kts | 89° |
| 2026-05-06 23:56 | 50.47232 | 19.09772 | 1007 ft | 17 kts | 90° |
| 2026-05-06 23:57 | 50.47232 | 19.09933 | 1012 ft | 12 kts | 86° |
| 2026-05-06 23:57 | 50.47279 | 19.10065 | 1014 ft | 13 kts | 53° |
| 2026-05-06 23:57 | 50.47334 | 19.10181 | 1014 ft | 12 kts | 53° |
| 2026-05-06 23:57 | 50.47385 | 19.10287 | 1014 ft | 13 kts | 52° |
| 2026-05-06 23:58 | 50.47451 | 19.10403 | 1012 ft | 15 kts | 24° |
| 2026-05-06 23:58 | 50.47562 | 19.10406 | 1009 ft | 11 kts | 343° |
| 2026-05-06 23:58 | 50.47596 | 19.10308 | 1008 ft | 15 kts | 271° |
| 2026-05-06 23:58 | 50.47597 | 19.09872 | 995 ft | 75 kts | 270° |
| 2026-05-06 23:59 | 50.47599 | 19.08692 | 983 ft | 139 kts | 270° |
| 2026-05-06 23:59 | 50.47607 | 19.06919 | 1107 ft | 179 kts | 269° |
| 2026-05-06 23:59 | 50.47621 | 19.04983 | 1846 ft | 180 kts | 267° |
| 2026-05-06 23:59 | 50.47637 | 19.03031 | 2580 ft | 183 kts | 265° |
| 2026-05-07 00:00 | 50.47642 | 19.00995 | 3203 ft | 192 kts | 263° |
| 2026-05-07 00:00 | 50.47615 | 18.98979 | 4141 ft | 182 kts | 260° |
| 2026-05-07 00:00 | 50.47404 | 18.96992 | 4666 ft | 188 kts | 238° |
| 2026-05-07 00:00 | 50.46850 | 18.95963 | 4983 ft | 194 kts | 211° |
| 2026-05-07 00:01 | 50.45015 | 18.95826 | 5736 ft | 225 kts | 160° |
| 2026-05-07 00:01 | 50.43845 | 18.97654 | 6414 ft | 255 kts | 131° |
| 2026-05-07 00:01 | 50.42793 | 18.99945 | 6980 ft | 267 kts | 137° |
| 2026-05-07 00:01 | 50.41526 | 19.02063 | 7764 ft | 272 kts | 142° |
| 2026-05-07 00:02 | 50.40187 | 19.04142 | 8637 ft | 276 kts | 141° |
| 2026-05-07 00:02 | 50.38834 | 19.06294 | 9483 ft | 281 kts | 140° |
| 2026-05-07 00:02 | 50.37494 | 19.08495 | 10275 ft | 287 kts | 139° |
| 2026-05-07 00:02 | 50.36080 | 19.10844 | 10811 ft | 303 kts | 138° |
| 2026-05-07 00:03 | 50.34611 | 19.13301 | 11320 ft | 320 kts | 138° |
| 2026-05-07 00:03 | 50.33058 | 19.15901 | 11804 ft | 336 kts | 137° |
| 2026-05-07 00:03 | 50.31420 | 19.18643 | 12351 ft | 350 kts | 137° |
| 2026-05-07 00:03 | 50.29765 | 19.21413 | 13162 ft | 355 kts | 137° |
| 2026-05-07 00:04 | 50.28075 | 19.24243 | 13902 ft | 360 kts | 137° |
| 2026-05-07 00:04 | 50.26356 | 19.27117 | 14752 ft | 364 kts | 137° |
| 2026-05-07 00:04 | 50.24643 | 19.29977 | 15471 ft | 369 kts | 137° |
| 2026-05-07 00:04 | 50.22888 | 19.32900 | 16173 ft | 374 kts | 137° |
| 2026-05-07 00:05 | 50.21100 | 19.35871 | 16942 ft | 377 kts | 137° |
| 2026-05-07 00:05 | 50.19294 | 19.38867 | 17588 ft | 383 kts | 137° |
| 2026-05-07 00:05 | 50.17477 | 19.41879 | 18307 ft | 387 kts | 137° |
| 2026-05-07 00:05 | 50.15622 | 19.44955 | 19080 ft | 389 kts | 137° |
| 2026-05-07 00:06 | 50.13778 | 19.48003 | 19774 ft | 393 kts | 137° |
| 2026-05-07 00:06 | 50.11887 | 19.51124 | 20432 ft | 397 kts | 138° |
| 2026-05-07 00:06 | 50.10009 | 19.54221 | 21157 ft | 399 kts | 138° |
| 2026-05-07 00:06 | 50.08078 | 19.57400 | 21749 ft | 404 kts | 138° |
| 2026-05-07 00:07 | 50.06149 | 19.60576 | 22464 ft | 406 kts | 137° |
| 2026-05-07 00:07 | 50.04217 | 19.63752 | 23059 ft | 410 kts | 138° |
| 2026-05-07 00:07 | 50.02251 | 19.66979 | 23635 ft | 414 kts | 138° |
| 2026-05-07 00:07 | 50.00274 | 19.70216 | 24260 ft | 416 kts | 139° |
| 2026-05-07 00:08 | 49.98272 | 19.73490 | 24780 ft | 421 kts | 139° |
| 2026-05-07 00:08 | 49.96230 | 19.76824 | 25301 ft | 426 kts | 139° |
| 2026-05-07 00:08 | 49.94191 | 19.80154 | 25820 ft | 430 kts | 139° |
| 2026-05-07 00:08 | 49.92127 | 19.83519 | 26288 ft | 434 kts | 138° |
| 2026-05-07 00:09 | 49.90061 | 19.86883 | 26829 ft | 437 kts | 138° |
| 2026-05-07 00:09 | 49.87950 | 19.90313 | 27315 ft | 441 kts | 138° |
| 2026-05-07 00:09 | 49.85813 | 19.93780 | 27732 ft | 446 kts | 138° |
| 2026-05-07 00:09 | 49.83664 | 19.97263 | 28204 ft | 450 kts | 138° |
| 2026-05-07 00:10 | 49.81470 | 20.00813 | 28703 ft | 453 kts | 138° |
| 2026-05-07 00:10 | 49.79288 | 20.04340 | 29109 ft | 457 kts | 138° |
| 2026-05-07 00:10 | 49.77071 | 20.07921 | 29614 ft | 459 kts | 138° |
| 2026-05-07 00:10 | 49.74886 | 20.11448 | 30277 ft | 456 kts | 138° |
| 2026-05-07 00:11 | 49.72712 | 20.14958 | 31141 ft | 450 kts | 138° |
| 2026-05-07 00:11 | 49.70575 | 20.18406 | 31780 ft | 447 kts | 138° |
| 2026-05-07 00:11 | 49.68422 | 20.21871 | 32361 ft | 446 kts | 138° |
| 2026-05-07 00:11 | 49.66272 | 20.25325 | 32954 ft | 444 kts | 138° |
| 2026-05-07 00:12 | 49.64155 | 20.28721 | 33533 ft | 442 kts | 138° |
| 2026-05-07 00:12 | 49.62005 | 20.32160 | 34005 ft | 442 kts | 138° |
| 2026-05-07 00:12 | 49.59860 | 20.35583 | 34382 ft | 445 kts | 138° |
| 2026-05-07 00:12 | 49.57719 | 20.38994 | 34737 ft | 446 kts | 138° |
| 2026-05-07 00:13 | 49.55571 | 20.42409 | 35187 ft | 444 kts | 139° |
| 2026-05-07 00:13 | 49.53440 | 20.45795 | 35537 ft | 445 kts | 138° |
| 2026-05-07 00:13 | 49.51267 | 20.49242 | 35741 ft | 449 kts | 138° |
| 2026-05-07 00:13 | 49.49098 | 20.52676 | 36077 ft | 448 kts | 138° |
| 2026-05-07 00:14 | 49.46933 | 20.56101 | 36434 ft | 447 kts | 138° |
| 2026-05-07 00:14 | 49.44779 | 20.59507 | 36832 ft | 445 kts | 138° |
| 2026-05-07 00:14 | 49.40469 | 20.66315 | 36879 ft | 442 kts | 139° |
| 2026-05-07 00:15 | 49.36161 | 20.72929 | 36882 ft | 438 kts | 140° |
| 2026-05-07 00:15 | 49.31797 | 20.79425 | 36888 ft | 440 kts | 140° |
| 2026-05-07 00:16 | 49.27430 | 20.85902 | 36889 ft | 438 kts | 140° |
| 2026-05-07 00:16 | 49.23051 | 20.92403 | 36901 ft | 439 kts | 140° |
| 2026-05-07 00:17 | 49.18671 | 20.98896 | 36902 ft | 440 kts | 140° |